Time;durP1;ratioP1;P1;durP2;ratioP2;P2;SDS_P1;SDS_P2;PMS_P1;PMS_P2;Temp;Humidity;BMP_temperature;BMP_pressure;BME280_temperature;BME280_humidity;BME280_pressure;Samples;Min_cycle;Max_cycle;Signal;HPM_P1;HPM_P2
2021/04/02 00:00:56;;;;;;;13.35;12.05;;;;;;;13.05;56.11;101301.98;1732146;82;21198;-50
2021/04/02 00:03:29;;;;;;;13.28;11.95;;;;;;;13.07;56.00;101302.80;1715577;82;21136;-50
2021/04/02 00:05:57;;;;;;;12.80;11.45;;;;;;;13.06;55.94;101301.09;1725364;82;21615;-51
2021/04/02 00:08:26;;;;;;;12.88;11.57;;;;;;;13.04;55.91;101297.66;1725355;82;21232;-50
2021/04/02 00:10:59;;;;;;;12.63;11.35;;;;;;;13.04;56.00;101297.66;1726722;82;21108;-50
2021/04/02 00:13:30;;;;;;;14.75;11.12;;;;;;;13.02;56.06;101295.03;1728700;82;21139;-50
2021/04/02 00:16:05;;;;;;;12.78;11.48;;;;;;;13.08;56.00;101292.31;1805777;79;22324;-50
2021/04/02 00:18:33;;;;;;;13.95;12.25;;;;;;;13.05;55.84;101292.39;1725593;83;21179;-50
2021/04/02 00:21:04;;;;;;;12.68;11.38;;;;;;;13.07;55.72;101284.52;1724154;83;21743;-50
2021/04/02 00:23:33;;;;;;;11.30;10.20;;;;;;;13.08;55.50;101286.69;1722360;83;21604;-51
2021/04/02 00:26:01;;;;;;;11.05;9.95;;;;;;;13.02;55.46;101281.97;1722253;83;21156;-50
2021/04/02 00:28:29;;;;;;;10.78;9.70;;;;;;;13.00;55.46;101283.77;1726555;83;21164;-50
2021/04/02 00:30:58;;;;;;;12.82;10.05;;;;;;;12.99;55.13;101282.06;1745171;82;21581;-50
2021/04/02 00:33:28;;;;;;;10.30;9.35;;;;;;;12.99;54.70;101276.83;1746445;81;21188;-50
2021/04/02 00:35:57;;;;;;;12.88;9.98;;;;;;;13.00;54.38;101281.15;1723646;83;21172;-50
2021/04/02 00:38:25;;;;;;;10.05;9.05;;;;;;;13.00;53.96;101275.92;1728185;83;21224;-49
2021/04/02 00:41:04;;;;;;;10.48;9.38;;;;;;;13.02;53.61;101280.66;1712153;83;21166;-49
2021/04/02 00:43:36;;;;;;;10.53;9.53;;;;;;;12.98;53.58;101282.94;1708219;84;21179;-49
2021/04/02 00:46:06;;;;;;;10.85;9.75;;;;;;;13.01;53.26;101273.73;1676318;84;21137;-50
2021/04/02 00:48:35;;;;;;;9.60;8.60;;;;;;;13.02;53.14;101261.55;1708072;84;21149;-50
2021/04/02 00:51:07;;;;;;;10.20;9.20;;;;;;;12.97;53.06;101259.47;1731041;82;21179;-50
2021/04/02 00:53:38;;;;;;;9.55;8.55;;;;;;;12.95;52.68;101258.20;1740300;82;21616;-50
2021/04/02 00:56:07;;;;;;;9.38;8.50;;;;;;;12.96;52.32;101250.77;1744538;81;21211;-49
2021/04/02 00:58:35;;;;;;;9.50;8.23;;;;;;;12.99;52.05;101252.45;1697758;83;21166;-49
2021/04/02 01:01:05;;;;;;;10.38;9.35;;;;;;;13.03;51.85;101240.59;1744045;81;21570;-49
2021/04/02 01:03:35;;;;;;;10.53;9.43;;;;;;;13.02;52.11;101244.09;1726847;83;21590;-50
2021/04/02 01:06:07;;;;;;;9.53;8.63;;;;;;;13.01;52.33;101233.25;1750001;81;21585;-49
2021/04/02 01:08:36;;;;;;;10.08;9.13;;;;;;;12.98;52.56;101232.00;1747992;81;21125;-49
2021/04/02 01:11:12;;;;;;;10.75;9.65;;;;;;;12.96;52.75;101233.79;1747795;81;21176;-50
2021/04/02 01:13:47;;;;;;;9.30;8.45;;;;;;;12.93;52.90;101233.87;1725501;81;21180;-49
2021/04/02 01:16:22;;;;;;;10.38;9.30;;;;;;;12.89;53.09;101227.02;1651199;84;21896;-50
2021/04/02 01:19:08;;;;;;;9.90;9.00;;;;;;;12.88;53.12;101237.03;1667201;85;21223;-50
2021/04/02 01:21:44;;;;;;;9.85;8.85;;;;;;;12.85;52.94;101233.20;1711094;83;21205;-49
2021/04/02 01:24:41;;;;;;;10.70;9.53;;;;;;;12.86;52.61;101236.20;1768140;79;23544;-50
2021/04/02 01:27:21;;;;;;;10.78;9.25;;;;;;;12.79;52.32;101225.52;1733053;81;21151;-50
2021/04/02 01:29:55;;;;;;;10.48;9.48;;;;;;;12.75;52.29;101223.00;1732231;83;21660;-50
2021/04/02 01:32:45;;;;;;;10.13;9.23;;;;;;;12.73;52.50;101217.83;1816406;79;23056;-51
2021/04/02 01:35:31;;;;;;;11.03;9.88;;;;;;;12.64;52.75;101211.50;1782540;80;21161;-50
2021/04/02 01:38:18;;;;;;;11.20;9.58;;;;;;;12.59;53.24;101209.42;1777271;80;21109;-50
2021/04/02 01:40:50;;;;;;;10.23;9.05;;;;;;;12.54;53.81;101208.69;1750862;81;21309;-50
2021/04/02 01:43:20;;;;;;;11.95;9.95;;;;;;;12.57;54.06;101201.23;1756442;80;21163;-50
2021/04/02 01:45:49;;;;;;;12.73;10.20;;;;;;;12.56;54.24;101197.77;1787908;80;21144;-50
2021/04/02 01:48:17;;;;;;;11.73;10.55;;;;;;;12.54;54.49;101196.94;1725546;83;21155;-50
2021/04/02 01:50:46;;;;;;;10.85;9.75;;;;;;;12.53;54.82;101187.38;1725512;83;21205;-50
2021/04/02 01:53:16;;;;;;;10.90;9.78;;;;;;;12.44;55.31;101190.65;1733565;82;21156;-50
2021/04/02 01:55:44;;;;;;;14.47;10.72;;;;;;;12.38;55.68;101184.27;1705835;81;21708;-50
2021/04/02 01:58:13;;;;;;;12.53;9.68;;;;;;;12.33;56.01;101181.75;1751744;81;21172;-50
2021/04/02 02:00:46;;;;;;;10.88;9.78;;;;;;;12.34;56.23;101178.27;1726531;83;21127;-50
2021/04/02 02:03:14;;;;;;;11.43;10.23;;;;;;;12.34;56.36;101165.66;1740395;81;21152;-50
2021/04/02 02:05:42;;;;;;;11.55;10.05;;;;;;;12.30;56.66;101170.09;1739480;81;21304;-50
2021/04/02 02:08:13;;;;;;;10.40;9.38;;;;;;;12.28;56.77;101166.19;1748938;81;21189;-51
2021/04/02 02:10:43;;;;;;;11.85;9.25;;;;;;;12.26;56.99;101164.53;1726584;83;21154;-50
2021/04/02 02:13:13;;;;;;;10.25;9.25;;;;;;;12.27;57.12;101158.41;1722182;83;21170;-51
2021/04/02 02:15:42;;;;;;;11.33;10.25;;;;;;;12.23;57.28;101142.41;1727874;83;21164;-50
2021/04/02 02:18:14;;;;;;;11.38;10.28;;;;;;;12.18;57.57;101142.94;1726052;83;21136;-50
2021/04/02 02:20:43;;;;;;;11.30;10.13;;;;;;;12.20;57.60;101154.20;1730243;83;21136;-50
2021/04/02 02:23:13;;;;;;;11.03;9.30;;;;;;;12.20;57.60;101151.59;1732040;83;21160;-50
2021/04/02 02:25:40;;;;;;;10.48;9.43;;;;;;;12.20;57.56;101148.98;1740046;82;21128;-50
2021/04/02 02:28:09;;;;;;;10.38;9.38;;;;;;;12.20;57.66;101151.59;1756282;81;21164;-50
2021/04/02 02:30:38;;;;;;;12.80;9.80;;;;;;;12.25;57.49;101145.84;1683455;83;21216;-50
2021/04/02 02:33:24;;;;;;;14.53;11.03;;;;;;;12.33;57.47;101131.30;1773749;79;23090;-50
2021/04/02 02:35:53;;;;;;;12.18;10.93;;;;;;;12.26;57.52;101126.70;1734162;82;21125;-50
2021/04/02 02:38:23;;;;;;;12.03;9.78;;;;;;;12.26;57.56;101128.00;1739313;82;21553;-50
2021/04/02 02:40:51;;;;;;;11.25;10.15;;;;;;;12.34;57.41;101114.77;1740723;82;21502;-50
2021/04/02 02:43:20;;;;;;;11.85;10.00;;;;;;;12.39;57.30;101113.76;1744015;82;21561;-50
2021/04/02 02:45:50;;;;;;;12.18;10.32;;;;;;;12.30;57.50;101112.69;1732016;82;21124;-50
2021/04/02 02:48:19;;;;;;;14.40;10.95;;;;;;;12.34;57.48;101118.69;1743957;82;21137;-50
2021/04/02 02:50:53;;;;;;;11.95;10.28;;;;;;;12.33;57.53;101115.20;1734983;81;21140;-50
2021/04/02 02:53:25;;;;;;;12.03;9.98;;;;;;;12.28;57.61;101111.39;1712629;82;21741;-50
2021/04/02 02:55:55;;;;;;;10.98;9.90;;;;;;;12.28;57.63;101117.09;1705289;82;21145;-50
2021/04/02 02:58:25;;;;;;;12.33;10.72;;;;;;;12.23;57.90;101117.63;1724528;82;21136;-50
2021/04/02 03:00:55;;;;;;;11.80;10.70;;;;;;;12.24;57.95;101116.74;1710789;82;21541;-50
2021/04/02 03:03:23;;;;;;;14.50;10.95;;;;;;;12.20;57.97;101116.37;1741769;82;21145;-50
2021/04/02 03:05:53;;;;;;;16.97;11.75;;;;;;;12.20;57.96;101120.28;1735305;81;21275;-50
2021/04/02 03:08:25;;;;;;;12.90;11.38;;;;;;;12.19;57.90;101122.50;1716715;82;21136;-50
2021/04/02 03:10:54;;;;;;;12.53;11.08;;;;;;;12.14;58.08;101106.94;1739059;82;21192;-50
2021/04/02 03:13:22;;;;;;;12.93;11.12;;;;;;;12.14;58.08;101106.94;1721784;82;21596;-50
2021/04/02 03:15:51;;;;;;;13.68;11.57;;;;;;;12.14;58.06;101112.59;1736937;82;21149;-51
2021/04/02 03:18:21;;;;;;;15.13;10.85;;;;;;;12.15;58.18;101113.02;1723905;82;21151;-50
2021/04/02 03:20:50;;;;;;;12.95;10.80;;;;;;;12.13;58.25;101104.37;1742304;82;21161;-50
2021/04/02 03:23:19;;;;;;;12.90;11.60;;;;;;;12.12;58.29;101111.77;1703512;84;21176;-50
2021/04/02 03:25:49;;;;;;;13.05;11.55;;;;;;;12.07;58.44;101109.73;1673860;84;21167;-50
2021/04/02 03:28:18;;;;;;;14.98;11.00;;;;;;;12.03;58.65;101110.25;1696552;84;21171;-50
2021/04/02 03:30:49;;;;;;;15.13;11.97;;;;;;;12.04;58.65;101113.70;1696508;84;21195;-50
2021/04/02 03:33:28;;;;;;;14.28;11.97;;;;;;;12.06;58.62;101106.26;1683580;84;21176;-50
2021/04/02 03:36:03;;;;;;;15.40;12.37;;;;;;;12.05;58.73;101102.39;1585570;88;21172;-50
2021/04/02 03:38:35;;;;;;;13.85;12.30;;;;;;;12.04;58.67;101101.95;1610695;88;21268;-49
2021/04/02 03:41:05;;;;;;;;;;;;;;;12.04;58.73;101107.17;1601818;90;21184;-50
2021/04/02 03:43:35;;;;;;;15.68;12.80;;;;;;;12.02;58.86;101107.66;1565801;90;20435;-50
2021/04/02 03:46:03;;;;;;;17.82;13.15;;;;;;;12.04;58.86;101103.27;1589242;89;21184;-50
2021/04/02 03:48:35;;;;;;;15.48;13.78;;;;;;;12.05;58.79;101101.08;1598678;88;21232;-50
2021/04/02 03:51:04;;;;;;;14.27;12.77;;;;;;;12.05;58.74;101095.43;1604694;88;21242;-51
2021/04/02 03:53:36;;;;;;;15.65;14.15;;;;;;;12.05;58.73;101088.05;1608593;87;21242;-50
2021/04/02 03:56:15;;;;;;;14.83;13.18;;;;;;;12.11;58.83;101090.51;1771415;79;23145;-50
2021/04/02 03:58:45;;;;;;;16.62;13.55;;;;;;;12.11;58.87;101104.86;1720778;82;21244;-50
2021/04/02 04:01:19;;;;;;;16.75;14.30;;;;;;;12.15;58.71;101089.11;1707131;83;21203;-50
2021/04/02 04:03:49;;;;;;;17.82;14.23;;;;;;;12.17;58.69;101081.23;1710636;83;21201;-49
2021/04/02 04:06:20;;;;;;;15.50;13.35;;;;;;;12.19;58.65;101077.71;1710348;83;21231;-50
2021/04/02 04:08:52;;;;;;;;;;;;;;;12.21;58.57;101072.45;1671637;86;21208;-48
2021/04/02 04:11:23;;;;;;;15.60;13.28;;;;;;;12.18;58.81;101069.89;1647099;86;20472;-50
2021/04/02 04:13:52;;;;;;;15.65;13.88;;;;;;;12.18;59.03;101072.50;1669355;86;21228;-50
2021/04/02 04:16:23;;;;;;;19.12;15.15;;;;;;;12.18;59.14;101072.50;1634943;86;21208;-50
2021/04/02 04:18:59;;;;;;;16.10;14.00;;;;;;;12.21;59.04;101064.62;1669658;86;21641;-50
2021/04/02 04:21:41;;;;;;;14.18;12.70;;;;;;;12.25;59.06;101074.09;1771653;79;23565;-50
2021/04/02 04:24:19;;;;;;;14.80;13.30;;;;;;;12.16;59.20;101058.64;1738657;82;21168;-50
2021/04/02 04:26:49;;;;;;;16.48;13.20;;;;;;;12.16;59.32;101065.16;1738269;82;21156;-50
2021/04/02 04:29:24;;;;;;;14.90;12.30;;;;;;;12.18;59.44;101062.06;1739638;81;21172;-50
2021/04/02 04:31:58;;;;;;;16.02;12.82;;;;;;;12.27;59.39;101054.03;1767214;79;23061;-50
2021/04/02 04:34:26;;;;;;;14.55;12.03;;;;;;;12.28;59.26;101060.98;1744584;82;21160;-50
2021/04/02 04:36:54;;;;;;;15.20;12.40;;;;;;;12.29;59.12;101049.64;1710029;82;21160;-50
2021/04/02 04:39:22;;;;;;;15.63;13.18;;;;;;;12.31;59.12;101044.38;1682162;82;21148;-50
2021/04/02 04:41:52;;;;;;;14.47;12.95;;;;;;;12.34;59.04;101045.18;1734453;82;21148;-50
2021/04/02 04:44:21;;;;;;;21.48;13.78;;;;;;;12.37;59.03;101047.70;1709929;82;21172;-50
2021/04/02 04:46:48;;;;;;;13.75;12.10;;;;;;;12.42;58.89;101035.41;1745272;82;21215;-50
2021/04/02 04:49:16;;;;;;;15.72;12.73;;;;;;;12.44;58.73;101041.45;1738835;82;21169;-50
2021/04/02 04:51:45;;;;;;;14.53;11.78;;;;;;;12.45;58.64;101035.31;1740373;82;21168;-50
2021/04/02 04:54:14;;;;;;;13.68;11.73;;;;;;;12.45;58.52;101035.75;1735548;82;21294;-50
2021/04/02 04:56:42;;;;;;;16.40;12.47;;;;;;;12.47;58.49;101035.30;1743537;82;21537;-51
2021/04/02 04:59:10;;;;;;;15.15;12.05;;;;;;;12.46;58.60;101029.66;1732096;82;21282;-50
2021/04/02 05:01:44;;;;;;;15.95;14.00;;;;;;;12.46;58.51;101027.91;1723699;82;21153;-50
2021/04/02 05:04:11;;;;;;;16.65;14.18;;;;;;;12.50;58.49;101029.98;1744570;82;21149;-50
2021/04/02 05:06:39;;;;;;;17.75;13.75;;;;;;;12.50;58.44;101033.47;1724199;82;21143;-50
2021/04/02 05:09:07;;;;;;;17.00;14.10;;;;;;;12.50;58.44;101038.69;1739079;82;21275;-50
2021/04/02 05:11:37;;;;;;;17.25;13.15;;;;;;;12.49;58.44;101031.73;1734614;82;21215;-50
2021/04/02 05:14:07;;;;;;;18.12;13.40;;;;;;;12.47;58.53;101037.44;1742197;82;21577;-50
2021/04/02 05:16:35;;;;;;;17.73;13.50;;;;;;;12.49;58.50;101031.73;1734909;82;21152;-50
2021/04/02 05:19:04;;;;;;;17.85;13.90;;;;;;;12.49;58.54;101026.52;1739584;82;21161;-51
2021/04/02 05:21:33;;;;;;;17.32;14.33;;;;;;;12.47;58.57;101024.39;1737900;82;21294;-50
2021/04/02 05:24:01;;;;;;;19.20;14.00;;;;;;;12.47;58.59;101023.08;1738774;82;21164;-50
2021/04/02 05:26:29;;;;;;;18.57;14.38;;;;;;;12.46;58.75;101027.91;1736950;82;21164;-51
2021/04/02 05:28:57;;;;;;;16.42;14.05;;;;;;;12.51;58.75;101029.94;1741701;82;21212;-50
2021/04/02 05:31:24;;;;;;;18.00;15.18;;;;;;;12.58;58.53;101036.73;1728655;82;21137;-50
2021/04/02 05:33:54;;;;;;;19.10;15.25;;;;;;;12.50;58.72;101029.98;1730602;82;21624;-50
2021/04/02 05:36:23;;;;;;;18.35;14.38;;;;;;;12.48;58.70;101030.03;1730937;82;21208;-50
2021/04/02 05:38:51;;;;;;;18.77;14.68;;;;;;;12.43;58.63;101031.89;1737047;82;21136;-50
2021/04/02 05:41:25;;;;;;;17.75;14.78;;;;;;;12.45;58.66;101032.70;1734429;82;21278;-50
2021/04/02 05:43:56;;;;;;;18.52;14.55;;;;;;;12.47;58.63;101023.08;1735382;82;21581;-51
2021/04/02 05:46:25;;;;;;;29.60;16.50;;;;;;;12.48;58.75;101026.56;1647920;86;21193;-50
2021/04/02 05:49:02;;;;;;;20.57;16.10;;;;;;;12.53;58.66;101022.92;1626828;88;21185;-50
2021/04/02 05:51:31;;;;;;;22.17;15.08;;;;;;;12.46;58.83;101025.30;1647040;86;21214;-50
2021/04/02 05:53:59;;;;;;;21.48;15.83;;;;;;;12.47;58.86;101024.86;1626533;88;21242;-50
2021/04/02 05:56:27;;;;;;;17.52;15.10;;;;;;;12.57;58.71;101021.95;1644900;86;21591;-50
2021/04/02 05:58:55;;;;;;;19.15;14.78;;;;;;;12.60;58.74;101017.97;1624212;88;21351;-50
2021/04/02 06:01:23;;;;;;;18.73;15.30;;;;;;;12.69;58.52;101010.36;1644061;86;21650;-50
2021/04/02 06:03:51;;;;;;;18.30;15.88;;;;;;;12.76;58.34;101012.75;1624152;88;21205;-50
2021/04/02 06:06:19;;;;;;;18.75;14.73;;;;;;;12.82;58.07;101003.89;1644159;86;21193;-50
2021/04/02 06:08:47;;;;;;;19.20;14.28;;;;;;;12.84;57.86;101004.27;1625167;88;21792;-50
2021/04/02 06:11:15;;;;;;;19.60;14.55;;;;;;;12.87;57.70;100999.41;1646955;86;21151;-50
2021/04/02 06:13:45;;;;;;;20.77;14.45;;;;;;;12.93;57.55;100996.63;1626509;88;21363;-50
2021/04/02 06:16:13;;;;;;;15.70;13.10;;;;;;;12.95;57.41;101000.92;1645805;86;21190;-51
2021/04/02 06:18:44;;;;;;;17.07;14.00;;;;;;;13.00;57.15;100996.88;1624126;88;21206;-50
2021/04/02 06:21:12;;;;;;;16.95;13.45;;;;;;;13.08;56.83;101001.48;1649358;86;21614;-50
2021/04/02 06:23:47;;;;;;;17.92;13.72;;;;;;;13.16;56.83;100994.72;1777352;79;22872;-50
2021/04/02 06:26:15;;;;;;;14.58;12.43;;;;;;;13.20;56.54;100995.90;1738846;82;21216;-50
2021/04/02 06:28:44;;;;;;;14.93;11.83;;;;;;;13.27;56.24;100980.91;1698743;82;21577;-51
2021/04/02 06:31:17;;;;;;;14.03;11.45;;;;;;;13.36;55.98;100981.48;1739798;82;21184;-50
2021/04/02 06:33:47;;;;;;;20.35;12.25;;;;;;;13.46;55.76;100974.21;1731982;82;21156;-50
2021/04/02 06:36:18;;;;;;;17.07;12.03;;;;;;;13.55;55.48;100972.20;1730837;82;21117;-50
2021/04/02 06:38:54;;;;;;;16.97;12.60;;;;;;;13.66;55.20;100968.78;1742397;82;21140;-50
2021/04/02 06:41:30;;;;;;;15.00;12.10;;;;;;;13.84;54.99;100963.45;1778254;79;23066;-50
2021/04/02 06:44:01;;;;;;;16.73;11.43;;;;;;;13.92;54.45;100962.75;1739327;82;21192;-50
2021/04/02 06:46:37;;;;;;;17.10;10.70;;;;;;;14.03;54.03;100964.58;1737079;82;21125;-51
2021/04/02 06:49:14;;;;;;;13.58;11.55;;;;;;;14.10;53.88;100964.77;1632539;87;21644;-50
2021/04/02 06:51:45;;;;;;;12.75;10.85;;;;;;;14.20;53.49;100956.17;1629161;87;21629;-50
2021/04/02 06:54:17;;;;;;;16.15;11.08;;;;;;;14.21;53.13;100957.42;1634398;87;21189;-50
2021/04/02 06:56:59;;;;;;;;;;;;;;;14.20;52.89;100962.23;1634929;87;21204;-48
2021/04/02 06:59:27;;;;;;;12.30;10.72;;;;;;;14.16;52.88;100962.39;1611420;87;20169;-50
2021/04/02 07:01:55;;;;;;;14.43;10.35;;;;;;;14.06;52.90;100959.23;1611118;87;21326;-51
2021/04/02 07:04:25;;;;;;;13.03;10.32;;;;;;;13.98;52.90;100956.00;1630363;87;21173;-50
2021/04/02 07:06:53;;;;;;;16.00;11.08;;;;;;;13.90;53.10;100954.09;1629847;87;21217;-50
2021/04/02 07:09:22;;;;;;;13.60;11.53;;;;;;;13.83;53.28;100954.73;1629853;87;21334;-50
2021/04/02 07:11:57;;;;;;;11.45;9.53;;;;;;;13.80;53.43;100946.14;1630024;87;21213;-50
2021/04/02 07:14:27;;;;;;;14.10;9.70;;;;;;;13.81;53.63;100944.77;1629819;87;21192;-51
2021/04/02 07:16:55;;;;;;;14.25;9.60;;;;;;;13.85;53.55;100943.77;1629993;87;21629;-50
2021/04/02 07:19:23;;;;;;;15.83;10.30;;;;;;;13.92;53.32;100943.13;1631690;87;21299;-50
2021/04/02 07:21:51;;;;;;;15.72;9.88;;;;;;;13.92;53.29;100943.13;1632543;87;21396;-51
2021/04/02 07:24:20;;;;;;;14.65;10.58;;;;;;;13.94;53.23;100943.93;1610960;87;21338;-50
2021/04/02 07:26:48;;;;;;;11.22;8.93;;;;;;;13.96;53.30;100946.49;1630227;87;21365;-51
2021/04/02 07:29:19;;;;;;;16.02;10.05;;;;;;;14.05;53.03;100943.59;1631552;87;21208;-50
2021/04/02 07:31:46;;;;;;;12.35;8.90;;;;;;;14.09;52.96;100937.34;1631645;87;21196;-50
2021/04/02 07:34:15;;;;;;;14.43;8.13;;;;;;;14.13;52.82;100937.20;1628593;87;21346;-51
2021/04/02 07:36:47;;;;;;;12.88;8.98;;;;;;;14.17;52.63;100941.42;1629540;87;21160;-51
2021/04/02 07:39:20;;;;;;;14.33;9.23;;;;;;;14.13;52.60;100939.81;1630154;87;21378;-48
2021/04/02 07:41:53;;;;;;;15.95;9.25;;;;;;;14.06;52.82;100934.81;1626913;87;21262;-51
2021/04/02 07:44:20;;;;;;;9.80;8.50;;;;;;;14.16;52.57;100938.83;1632806;87;21228;-48
2021/04/02 07:47:10;;;;;;;12.05;9.10;;;;;;;14.16;52.50;100935.77;1726859;82;21317;-49
2021/04/02 07:49:54;;;;;;;11.25;8.73;;;;;;;14.15;52.42;100927.53;1684275;84;21196;-51
2021/04/02 07:52:39;;;;;;;12.45;8.30;;;;;;;14.14;52.52;100919.71;1808686;79;22982;-50
2021/04/02 07:55:12;;;;;;;12.58;7.40;;;;;;;14.10;52.60;100920.72;1780162;80;21143;-50
2021/04/02 07:58:00;;;;;;;13.55;8.65;;;;;;;14.13;52.61;100918.88;1779226;80;21194;-50
2021/04/02 08:00:34;;;;;;;9.90;7.65;;;;;;;14.07;52.85;100923.02;1709499;83;21174;-50
2021/04/02 08:03:17;;;;;;;13.45;8.33;;;;;;;14.05;53.12;100929.20;1708368;83;21153;-50
2021/04/02 08:06:04;;;;;;;11.95;8.20;;;;;;;14.15;52.93;100930.16;1711232;83;21181;-51
2021/04/02 08:08:46;;;;;;;12.50;8.13;;;;;;;14.28;52.44;100930.16;1679732;85;21267;-50
2021/04/02 08:11:22;;;;;;;11.90;7.83;;;;;;;14.48;51.87;100930.34;1675301;85;21377;-50
2021/04/02 08:13:54;;;;;;;13.08;8.15;;;;;;;14.47;51.89;100929.93;1671899;85;21199;-50
2021/04/02 08:16:34;;;;;;;11.88;7.67;;;;;;;14.49;51.88;100926.80;1680642;85;21191;-50
2021/04/02 08:19:16;;;;;;;9.00;6.92;;;;;;;14.62;51.74;100918.93;1676920;85;21333;-50
2021/04/02 08:21:53;;;;;;;13.08;7.25;;;;;;;14.73;51.59;100921.61;1678917;85;21164;-49
2021/04/02 08:24:24;;;;;;;13.25;8.03;;;;;;;14.83;51.46;100916.44;1678510;85;21794;-50
2021/04/02 08:26:54;;;;;;;17.70;7.65;;;;;;;14.87;51.54;100912.34;1688422;85;21180;-49
2021/04/02 08:29:24;;;;;;;15.03;8.53;;;;;;;14.98;51.43;100915.88;1682033;85;21731;-50
2021/04/02 08:31:56;;;;;;;12.90;7.70;;;;;;;15.11;51.15;100919.73;1678223;85;21301;-50
2021/04/02 08:34:31;;;;;;;13.10;8.20;;;;;;;15.26;50.85;100898.20;1810017;79;23009;-50
2021/04/02 08:37:03;;;;;;;13.30;7.58;;;;;;;15.32;50.24;100908.44;1783841;80;21128;-50
2021/04/02 08:39:31;;;;;;;11.85;6.78;;;;;;;15.26;50.07;100895.58;1697419;84;21184;-50
2021/04/02 08:42:05;;;;;;;16.40;7.62;;;;;;;15.16;50.13;100899.47;1706618;84;21191;-50
2021/04/02 08:44:41;;;;;;;13.58;7.42;;;;;;;15.04;50.41;100889.00;1698612;84;21141;-50
2021/04/02 08:47:18;;;;;;;11.38;6.35;;;;;;;14.95;50.64;100881.92;1698507;84;21185;-50
2021/04/02 08:49:54;;;;;;;14.45;7.30;;;;;;;14.82;51.08;100885.93;1698683;84;21728;-50
2021/04/02 08:52:27;;;;;;;11.97;8.05;;;;;;;14.78;51.38;100885.16;1698400;84;21156;-50
2021/04/02 08:54:59;;;;;;;12.10;7.75;;;;;;;14.82;51.45;100878.90;1681718;84;21149;-50
2021/04/02 08:57:34;;;;;;;13.93;7.95;;;;;;;14.91;51.34;100890.81;1771620;79;23090;-50
2021/04/02 09:00:09;;;;;;;10.35;7.72;;;;;;;14.88;51.10;100883.91;1738780;82;21172;-51
2021/04/02 09:02:37;;;;;;;9.45;7.37;;;;;;;14.86;51.09;100890.14;1674130;85;21197;-50
2021/04/02 09:05:07;;;;;;;11.28;7.20;;;;;;;14.80;51.22;100886.41;1674133;85;21168;-49
2021/04/02 09:07:39;;;;;;;9.70;7.42;;;;;;;14.75;51.37;100886.60;1672829;85;21205;-49
2021/04/02 09:10:17;;;;;;;14.23;7.00;;;;;;;14.73;51.38;100883.63;1672635;85;21686;-50
2021/04/02 09:12:49;;;;;;;13.30;7.10;;;;;;;14.74;51.35;100887.95;1672611;85;21152;-49
2021/04/02 09:15:29;;;;;;;13.03;7.40;;;;;;;14.78;51.41;100865.97;1808714;79;23303;-50
2021/04/02 09:18:18;;;;;;;11.68;7.12;;;;;;;14.71;51.51;100873.22;1776583;80;21552;-50
2021/04/02 09:20:48;;;;;;;10.48;7.22;;;;;;;14.69;51.45;100866.70;1779822;80;21782;-50
2021/04/02 09:23:16;;;;;;;13.28;7.95;;;;;;;14.62;51.61;100843.42;1747952;81;21258;-50
2021/04/02 09:25:47;;;;;;;13.30;7.12;;;;;;;14.57;51.90;100859.30;1747631;80;21156;-50
2021/04/02 09:28:24;;;;;;;16.20;7.95;;;;;;;14.53;52.02;100851.16;1741397;81;21265;-50
2021/04/02 09:31:18;;;;;;;15.25;7.72;;;;;;;14.49;52.18;100841.70;1738827;81;21176;-50
2021/04/02 09:33:50;;;;;;;16.50;7.42;;;;;;;14.46;52.31;100843.14;1752659;81;21117;-50
2021/04/02 09:36:29;;;;;;;10.90;7.00;;;;;;;14.50;52.41;100836.02;1807124;79;23494;-50
2021/04/02 09:39:25;;;;;;;12.53;6.75;;;;;;;14.47;52.45;100837.43;1780206;80;21171;-50
2021/04/02 09:42:01;;;;;;;14.98;7.20;;;;;;;14.48;52.34;100830.85;1771722;80;21195;-50
2021/04/02 09:44:33;;;;;;;15.35;7.45;;;;;;;14.51;52.23;100832.03;1785563;80;21121;-50
2021/04/02 09:47:12;;;;;;;11.30;7.58;;;;;;;14.50;52.21;100830.34;1791223;80;21488;-50
2021/04/02 09:49:42;;;;;;;17.25;8.25;;;;;;;14.48;52.27;100832.16;1686782;85;21184;-50
2021/04/02 09:52:10;;;;;;;11.88;6.75;;;;;;;14.45;52.32;100824.41;1681358;85;21243;-50
2021/04/02 09:54:38;;;;;;;10.53;6.60;;;;;;;14.45;52.40;100826.16;1686840;85;21314;-51
2021/04/02 09:57:08;;;;;;;13.65;7.00;;;;;;;14.44;52.34;100833.19;1687207;85;21232;-50
2021/04/02 09:59:36;;;;;;;13.78;8.03;;;;;;;14.42;52.55;100820.60;1686820;85;21149;-50
2021/04/02 10:02:05;;;;;;;12.60;7.72;;;;;;;14.41;52.56;100822.81;1686710;85;21609;-50
2021/04/02 10:04:33;;;;;;;11.22;7.90;;;;;;;14.41;52.53;100822.81;1686949;85;21581;-50
2021/04/02 10:07:01;;;;;;;12.88;7.72;;;;;;;14.41;52.56;100818.88;1686804;85;21354;-50
2021/04/02 10:09:29;;;;;;;15.70;8.05;;;;;;;14.44;52.46;100820.09;1686882;85;21319;-50
2021/04/02 10:11:58;;;;;;;14.00;7.17;;;;;;;14.50;52.31;100819.87;1686762;85;21307;-50
2021/04/02 10:14:28;;;;;;;13.48;7.28;;;;;;;14.53;52.31;100819.73;1686803;85;21633;-51
2021/04/02 10:16:55;;;;;;;10.13;6.40;;;;;;;14.55;52.23;100811.37;1686833;85;21212;-51
2021/04/02 10:19:24;;;;;;;15.23;7.72;;;;;;;14.59;52.15;100810.79;1687097;85;21652;-50
2021/04/02 10:21:52;;;;;;;12.88;7.58;;;;;;;14.53;52.29;100800.09;1686764;85;21278;-50
2021/04/02 10:24:20;;;;;;;11.00;7.03;;;;;;;14.58;52.24;100812.58;1686861;85;21346;-50
2021/04/02 10:26:48;;;;;;;13.53;7.40;;;;;;;14.62;52.05;100805.00;1681031;85;21224;-50
2021/04/02 10:29:16;;;;;;;14.90;7.70;;;;;;;14.63;52.03;100809.31;1687278;85;21300;-50
2021/04/02 10:31:44;;;;;;;12.35;7.85;;;;;;;14.65;51.99;100805.36;1686904;85;21200;-50
2021/04/02 10:34:12;;;;;;;14.05;8.20;;;;;;;14.68;51.87;100807.84;1686657;85;21157;-50
2021/04/02 10:36:40;;;;;;;10.70;7.95;;;;;;;14.74;51.93;100802.81;1692445;85;21179;-50
2021/04/02 10:39:10;;;;;;;14.30;7.03;;;;;;;14.81;51.73;100803.00;1692303;85;21603;-50
2021/04/02 10:41:38;;;;;;;13.70;6.60;;;;;;;14.87;51.50;100795.77;1692299;85;21232;-50
2021/04/02 10:44:07;;;;;;;22.70;7.72;;;;;;;14.92;51.26;100795.59;1686389;85;21193;-50
2021/04/02 10:46:35;;;;;;;12.00;7.55;;;;;;;14.94;51.27;100787.22;1753517;80;21156;-50
2021/04/02 10:49:04;;;;;;;13.05;7.37;;;;;;;14.98;51.23;100780.45;1731476;82;21199;-50
2021/04/02 10:51:32;;;;;;;17.00;7.67;;;;;;;15.02;51.11;100768.11;1781013;80;21149;-50
2021/04/02 10:54:03;;;;;;;13.38;7.40;;;;;;;15.04;50.95;100774.14;1736430;82;21578;-51
2021/04/02 10:56:32;;;;;;;15.47;7.47;;;;;;;15.05;50.93;100761.42;1775950;80;21592;-50
2021/04/02 10:59:00;;;;;;;13.70;7.62;;;;;;;15.05;50.92;100762.28;1738067;82;21933;-50
2021/04/02 11:01:28;;;;;;;18.02;8.08;;;;;;;15.04;50.83;100755.80;1730395;82;21282;-50
2021/04/02 11:03:56;;;;;;;17.07;7.90;;;;;;;14.99;50.96;100748.56;1736316;82;21604;-50
2021/04/02 11:06:24;;;;;;;13.32;7.60;;;;;;;14.92;51.02;100760.22;1730451;82;21328;-50
2021/04/02 11:08:52;;;;;;;17.95;6.30;;;;;;;14.87;51.17;100755.60;1745196;82;21141;-50
2021/04/02 11:11:20;;;;;;;14.73;7.10;;;;;;;14.82;51.32;100754.47;1784274;80;21608;-50
2021/04/02 11:13:48;;;;;;;13.28;7.17;;;;;;;14.78;51.51;100758.56;1768981;80;21592;-50
2021/04/02 11:16:16;;;;;;;17.20;8.18;;;;;;;14.76;51.64;100748.61;1744412;82;21174;-50
2021/04/02 11:18:46;;;;;;;16.17;7.75;;;;;;;14.76;51.78;100745.54;1729908;82;21161;-50
2021/04/02 11:21:14;;;;;;;14.28;7.20;;;;;;;14.78;51.62;100752.88;1760098;80;21740;-50
2021/04/02 11:23:42;;;;;;;13.75;7.50;;;;;;;14.79;51.45;100755.91;1771986;80;21314;-50
2021/04/02 11:26:11;;;;;;;15.85;7.80;;;;;;;14.77;51.38;100742.47;1778022;80;21204;-50
2021/04/02 11:28:39;;;;;;;15.15;7.53;;;;;;;14.62;51.62;100743.47;1770383;80;21169;-50
2021/04/02 11:31:07;;;;;;;14.50;6.58;;;;;;;14.52;51.85;100746.04;1770876;80;21320;-51
2021/04/02 11:33:36;;;;;;;14.25;6.08;;;;;;;14.43;52.11;100742.45;1767633;80;21172;-50